Time;durP1;ratioP1;P1;durP2;ratioP2;P2;SDS_P1;SDS_P2;PMS_P1;PMS_P2;Temp;Humidity;BMP_temperature;BMP_pressure;BME280_temperature;BME280_humidity;BME280_pressure;Samples;Min_cycle;Max_cycle;Signal;HPM_P1;HPM_P2
2021/08/04 00:03:50;;;;;;;8.95;6.50;;;22.20;65.60;;;;;;20739800;28;20112;-20
2021/08/04 00:13:51;;;;;;;9.25;5.53;;;22.10;65.40;;;;;;20739831;28;20046;-20
2021/08/04 00:23:52;;;;;;;7.60;5.57;;;22.10;65.30;;;;;;20740352;28;20133;-20
2021/08/04 00:33:52;;;;;;;9.20;5.50;;;22.10;65.20;;;;;;20737987;28;20379;-21
2021/08/04 00:43:53;;;;;;;5.40;2.70;;;22.10;64.90;;;;;;20738676;28;20504;-21
2021/08/04 00:53:53;;;;;;;4.03;3.33;;;22.00;63.30;;;;;;20738402;28;20038;-21
2021/08/04 01:04:19;;;;;;;6.00;2.83;;;22.00;62.50;;;;;;20737731;28;20044;-21
2021/08/04 01:14:23;;;;;;;5.78;3.22;;;22.00;62.20;;;;;;20737527;28;20034;-20
2021/08/04 01:24:27;;;;;;;5.15;2.85;;;21.90;62.00;;;;;;20740579;28;20030;-20
2021/08/04 01:34:30;;;;;;;4.22;2.78;;;21.90;61.90;;;;;;20761504;28;20026;-20
2021/08/04 01:44:33;;;;;;;8.40;3.20;;;21.90;61.90;;;;;;20752495;28;20065;-19
2021/08/04 01:54:35;;;;;;;6.80;3.53;;;21.90;61.70;;;;;;20751957;28;20038;-19
2021/08/04 02:04:36;;;;;;;11.15;3.97;;;21.90;61.70;;;;;;20762887;28;20041;-20
2021/08/04 02:14:42;;;;;;;6.43;2.92;;;21.80;61.50;;;;;;20751363;28;20038;-20
2021/08/04 02:25:01;;;;;;;6.18;2.50;;;21.80;61.50;;;;;;20748917;28;20507;-21
2021/08/04 02:35:03;;;;;;;3.92;2.67;;;21.80;61.40;;;;;;20747051;28;20038;-19
2021/08/04 02:45:05;;;;;;;2.83;1.95;;;21.80;61.30;;;;;;20747684;28;20524;-20
2021/08/04 02:55:06;;;;;;;7.03;2.10;;;21.80;61.10;;;;;;20746886;28;20033;-20
2021/08/04 03:05:07;;;;;;;3.33;1.85;;;21.80;60.90;;;;;;20746126;28;20061;-20
2021/08/04 03:15:08;;;;;;;3.60;1.50;;;21.80;60.90;;;;;;20745185;28;20057;-20
2021/08/04 03:25:11;;;;;;;3.67;2.22;;;21.70;60.80;;;;;;20744170;28;20057;-21
2021/08/04 03:35:12;;;;;;;2.45;1.65;;;21.70;60.80;;;;;;20743648;28;20029;-20
2021/08/04 03:45:13;;;;;;;4.30;2.15;;;21.70;60.60;;;;;;20742973;28;20537;-20
2021/08/04 03:55:13;;;;;;;3.17;1.63;;;21.60;60.30;;;;;;20742474;28;20665;-21
2021/08/04 04:05:14;;;;;;;2.85;1.65;;;21.60;60.40;;;;;;20741389;28;20037;-21
2021/08/04 04:15:14;;;;;;;4.35;1.70;;;21.60;60.10;;;;;;20741591;28;20557;-21
2021/08/04 04:25:16;;;;;;;6.25;2.20;;;21.60;60.10;;;;;;20740820;28;20045;-21
2021/08/04 04:35:16;;;;;;;3.28;1.70;;;21.60;60.10;;;;;;20740717;28;20033;-21
2021/08/04 04:45:17;;;;;;;4.57;1.97;;;21.60;60.10;;;;;;20739012;28;20041;-21
2021/08/04 04:55:18;;;;;;;4.13;1.67;;;21.60;59.80;;;;;;20739138;28;20502;-21
2021/08/04 05:05:18;;;;;;;3.38;2.08;;;21.60;59.80;;;;;;20737435;28;20085;-21
2021/08/04 05:15:19;;;;;;;3.55;1.27;;;21.60;59.80;;;;;;20738767;28;20052;-20
2021/08/04 05:25:19;;;;;;;5.25;1.77;;;21.60;59.70;;;;;;20758295;28;20124;-20
2021/08/04 05:35:20;;;;;;;3.45;1.58;;;21.60;59.50;;;;;;20746364;28;20036;-21
2021/08/04 05:45:20;;;;;;;3.80;1.73;;;21.60;59.60;;;;;;20757075;28;20112;-20
2021/08/04 05:55:21;;;;;;;4.32;2.00;;;21.50;59.70;;;;;;20750794;28;20034;-20
2021/08/04 06:05:21;;;;;;;10.20;2.03;;;21.60;60.00;;;;;;20735938;28;20046;-20
2021/08/04 06:15:22;;;;;;;7.95;2.65;;;21.60;60.20;;;;;;20726388;28;20053;-20
2021/08/04 06:25:22;;;;;;;9.75;2.63;;;21.60;60.30;;;;;;20721208;28;20133;-20
2021/08/04 06:35:23;;;;;;;17.05;3.85;;;21.60;60.50;;;;;;20751779;28;20072;-20
2021/08/04 06:45:24;;;;;;;20.33;3.42;;;21.60;60.70;;;;;;20752307;28;20561;-20
2021/08/04 06:55:24;;;;;;;27.13;3.97;;;21.70;60.60;;;;;;20752842;28;20041;-19
2021/08/04 07:05:25;;;;;;;20.13;2.85;;;21.70;60.70;;;;;;20750013;28;20638;-20
2021/08/04 07:15:26;;;;;;;16.50;2.92;;;21.70;60.70;;;;;;20745898;28;20515;-21
2021/08/04 07:25:26;;;;;;;15.70;3.08;;;21.60;60.50;;;;;;20744411;28;20041;-19
2021/08/04 07:35:27;;;;;;;21.15;3.20;;;21.60;60.60;;;;;;20743827;28;20092;-19
2021/08/04 07:45:28;;;;;;;9.55;2.33;;;21.60;60.40;;;;;;20743626;28;20042;-20
2021/08/04 07:55:28;;;;;;;11.55;2.30;;;21.70;60.50;;;;;;20742345;28;20038;-20
2021/08/04 08:05:29;;;;;;;19.10;2.53;;;21.70;60.60;;;;;;20741143;28;20038;-20
2021/08/04 08:15:30;;;;;;;17.00;2.78;;;21.70;60.60;;;;;;20739693;28;20479;-20
2021/08/04 08:25:31;;;;;;;5.70;1.88;;;21.70;60.60;;;;;;20739600;28;20100;-21
2021/08/04 08:35:31;;;;;;;13.18;2.65;;;21.70;60.80;;;;;;20738681;28;20074;-21
2021/08/04 08:45:32;;;;;;;11.57;2.70;;;21.70;60.50;;;;;;20739236;28;20071;-20
2021/08/04 08:55:33;;;;;;;4.90;1.53;;;21.70;60.50;;;;;;20738399;28;20845;-20
2021/08/04 09:05:58;;;;;;;10.43;2.35;;;21.60;60.50;;;;;;20737810;28;20050;-20
2021/08/04 09:16:07;;;;;;;10.80;2.28;;;21.80;61.00;;;;;;20737849;28;20030;-20
2021/08/04 09:26:15;;;;;;;10.07;2.35;;;21.70;60.30;;;;;;20737750;28;20136;-20
2021/08/04 09:36:27;;;;;;;4.35;1.70;;;21.70;60.30;;;;;;20746195;28;20105;-20
2021/08/04 09:46:27;;;;;;;5.93;1.60;;;21.70;60.10;;;;;;20743512;28;20057;-21
2021/08/04 09:56:28;;;;;;;4.10;2.00;;;21.70;60.10;;;;;;20751873;28;20025;-21
2021/08/04 10:06:29;;;;;;;5.22;1.58;;;21.70;60.00;;;;;;20750929;28;20049;-21
2021/08/04 10:16:35;;;;;;;4.50;1.38;;;21.70;60.00;;;;;;20749371;28;20117;-21
2021/08/04 10:26:36;;;;;;;12.15;2.47;;;21.70;60.00;;;;;;20749371;28;20037;-20
2021/08/04 10:36:41;;;;;;;11.07;2.70;;;21.70;59.90;;;;;;20748654;28;20057;-21
2021/08/04 10:46:42;;;;;;;12.88;1.70;;;21.80;60.00;;;;;;20757658;28;20037;-21
2021/08/04 10:56:42;;;;;;;8.10;2.63;;;21.80;60.20;;;;;;20751048;28;20028;-21
2021/08/04 11:07:08;;;;;;;6.63;2.15;;;21.80;60.10;;;;;;20751246;28;20040;-21
2021/08/04 11:17:11;;;;;;;9.20;1.83;;;21.80;60.30;;;;;;20752414;28;20034;-20
2021/08/04 11:27:11;;;;;;;5.43;1.88;;;21.80;60.50;;;;;;20744961;28;20111;-20
2021/08/04 11:37:12;;;;;;;5.73;1.50;;;21.80;60.60;;;;;;20743920;28;20062;-21
2021/08/04 11:47:13;;;;;;;7.95;1.92;;;21.80;60.90;;;;;;20743133;28;21044;-21
2021/08/04 11:57:27;;;;;;;4.22;1.90;;;21.80;61.20;;;;;;20743068;28;20041;-21
2021/08/04 12:07:31;;;;;;;5.00;1.73;;;21.80;61.60;;;;;;20742235;28;20042;-21
2021/08/04 12:17:35;;;;;;;2.83;1.33;;;21.80;61.70;;;;;;20741740;28;20060;-21
2021/08/04 12:27:48;;;;;;;5.90;1.95;;;21.80;61.70;;;;;;20740087;28;20042;-21
2021/08/04 12:37:48;;;;;;;5.50;1.40;;;21.80;61.80;;;;;;20738953;28;20414;-21
2021/08/04 12:47:54;;;;;;;5.23;1.93;;;21.80;61.80;;;;;;20739468;28;20042;-21
2021/08/04 12:58:03;;;;;;;4.50;1.88;;;21.80;61.70;;;;;;20737694;28;20477;-21
2021/08/04 13:08:04;;;;;;;13.93;3.17;;;21.80;62.10;;;;;;20739574;28;20042;-21
2021/08/04 13:18:05;;;;;;;17.70;3.35;;;21.80;62.30;;;;;;20745889;28;20687;-21
2021/08/04 13:28:15;;;;;;;10.05;2.28;;;21.90;63.10;;;;;;20757944;28;20417;-21
2021/08/04 13:38:17;;;;;;;3.72;1.70;;;21.90;63.30;;;;;;20760039;28;20609;-21
2021/08/04 13:48:18;;;;;;;6.38;2.55;;;21.90;62.00;;;;;;20749427;28;20044;-20
2021/08/04 13:58:18;;;;;;;4.15;2.35;;;21.90;61.30;;;;;;20748451;28;20042;-21
2021/08/04 14:08:19;;;;;;;5.45;2.50;;;21.80;60.90;;;;;;20751012;28;20036;-21
2021/08/04 14:18:20;;;;;;;3.63;1.90;;;21.80;60.70;;;;;;20757889;28;20030;-21
2021/08/04 14:28:20;;;;;;;5.35;2.42;;;21.80;60.70;;;;;;20754563;28;20046;-21
2021/08/04 14:38:21;;;;;;;2.80;2.20;;;21.80;60.80;;;;;;20751355;28;20371;-21
2021/08/04 14:48:21;;;;;;;4.18;2.58;;;21.80;60.80;;;;;;20750747;28;20398;-21
2021/08/04 14:58:22;;;;;;;3.33;2.33;;;21.80;61.00;;;;;;20762001;28;20045;-21
2021/08/04 15:08:23;;;;;;;2.60;1.90;;;21.80;61.00;;;;;;20747078;28;20034;-21
2021/08/04 15:18:24;;;;;;;4.90;2.13;;;21.80;61.30;;;;;;20744562;28;20121;-21
2021/08/04 15:28:24;;;;;;;4.97;2.58;;;21.80;61.50;;;;;;20744587;28;20469;-21
2021/08/04 15:38:25;;;;;;;4.27;1.97;;;21.80;61.40;;;;;;20744313;28;20058;-21
2021/08/04 15:48:25;;;;;;;5.55;2.50;;;21.80;61.40;;;;;;20753726;28;21004;-21
2021/08/04 15:58:26;;;;;;;2.72;2.15;;;21.90;61.70;;;;;;20742629;28;20116;-21
2021/08/04 16:08:26;;;;;;;3.50;2.28;;;21.80;61.60;;;;;;20741719;28;20086;-21
2021/08/04 16:18:31;;;;;;;3.58;3.15;;;21.90;61.70;;;;;;20740459;28;20030;-20
2021/08/04 16:28:32;;;;;;;3.88;2.17;;;21.80;61.50;;;;;;20735056;28;20034;-21
2021/08/04 16:38:34;;;;;;;16.80;3.63;;;21.90;61.60;;;;;;20734290;28;20037;-21
2021/08/04 16:48:38;;;;;;;21.65;5.25;;;21.80;63.90;;;;;;20737360;28;20555;-21
2021/08/04 16:58:39;;;;;;;27.45;4.18;;;21.90;64.00;;;;;;20799398;23;20049;-19
2021/08/04 17:08:40;;;;;;;28.95;4.63;;;21.90;64.30;;;;;;20820096;28;20041;-19
2021/08/04 17:18:40;;;;;;;17.52;4.65;;;21.90;63.80;;;;;;20821916;28;20240;-18
2021/08/04 17:28:41;;;;;;;9.73;3.47;;;21.90;63.30;;;;;;20824213;28;20041;-19
2021/08/04 17:38:41;;;;;;;12.30;4.80;;;21.80;63.30;;;;;;20819944;28;20429;-20
2021/08/04 17:48:43;;;;;;;10.73;3.78;;;21.80;63.50;;;;;;20820383;28;20104;-20
2021/08/04 17:58:44;;;;;;;18.40;4.03;;;21.80;63.90;;;;;;20819728;28;20129;-18
2021/08/04 18:08:44;;;;;;;15.32;3.38;;;21.80;64.30;;;;;;20826476;28;20029;-20
2021/08/04 18:18:45;;;;;;;5.95;2.78;;;21.80;64.60;;;;;;20833300;28;20383;-21
2021/08/04 18:28:46;;;;;;;11.32;3.53;;;21.80;65.00;;;;;;20833318;28;20109;-19
2021/08/04 18:38:47;;;;;;;3.80;2.80;;;21.70;65.20;;;;;;20832961;28;20033;-19
2021/08/04 18:48:47;;;;;;;8.18;3.42;;;21.70;65.20;;;;;;20832486;28;20056;-20
2021/08/04 18:58:48;;;;;;;4.80;2.80;;;21.70;65.40;;;;;;20829819;28;20033;-19
2021/08/04 19:08:48;;;;;;;7.97;3.47;;;21.70;65.70;;;;;;20830032;28;20134;-20
2021/08/04 19:18:49;;;;;;;11.90;3.70;;;21.70;65.70;;;;;;20834543;28;20033;-20
2021/08/04 19:28:49;;;;;;;11.73;3.50;;;21.60;65.40;;;;;;20844787;28;20087;-20
2021/08/04 19:38:51;;;;;;;13.03;3.13;;;21.60;66.60;;;;;;20842536;28;20087;-19
2021/08/04 19:48:51;;;;;;;11.40;3.28;;;21.60;66.90;;;;;;20843056;28;20520;-19
2021/08/04 19:58:52;;;;;;;10.27;3.17;;;21.60;66.90;;;;;;20827898;28;20133;-19
2021/08/04 20:08:52;;;;;;;12.07;3.67;;;21.60;66.70;;;;;;20820571;28;20041;-20
2021/08/04 20:18:53;;;;;;;5.85;2.70;;;21.70;65.90;;;;;;20814521;28;20404;-20
2021/08/04 20:28:53;;;;;;;10.57;2.53;;;21.70;65.50;;;;;;20820824;28;20119;-20
2021/08/04 20:38:54;;;;;;;10.07;3.30;;;21.70;65.70;;;;;;20821272;28;20064;-20
2021/08/04 20:48:54;;;;;;;11.80;4.15;;;21.70;65.80;;;;;;20814681;28;20037;-18
2021/08/04 20:58:55;;;;;;;9.43;4.32;;;21.70;65.90;;;;;;20849438;28;20080;-19
2021/08/04 21:08:56;;;;;;;5.65;2.53;;;21.70;65.70;;;;;;20819010;28;20489;-20
2021/08/04 21:18:56;;;;;;;7.32;2.55;;;21.70;65.60;;;;;;20817998;28;20389;-20
2021/08/04 21:28:57;;;;;;;3.67;2.40;;;21.70;65.50;;;;;;20822525;28;20482;-20
2021/08/04 21:38:57;;;;;;;6.18;2.60;;;21.70;65.50;;;;;;20817429;28;20149;-20
2021/08/04 21:48:58;;;;;;;7.40;4.00;;;21.70;65.60;;;;;;20833755;28;20115;-21
2021/08/04 21:59:00;;;;;;;6.03;2.92;;;21.70;65.30;;;;;;20835432;28;20036;-20
2021/08/04 22:09:00;;;;;;;6.00;3.38;;;21.70;65.30;;;;;;20834792;28;20041;-19
2021/08/04 22:19:01;;;;;;;9.25;3.38;;;21.70;65.90;;;;;;20827426;28;20095;-19
2021/08/04 22:29:01;;;;;;;11.23;3.33;;;21.70;65.90;;;;;;20807639;28;20045;-19
2021/08/04 22:39:03;;;;;;;7.70;3.42;;;21.70;66.70;;;;;;20827426;28;20045;-19
2021/08/04 22:49:03;;;;;;;7.95;3.28;;;21.60;67.40;;;;;;20830342;28;20064;-19
2021/08/04 22:59:04;;;;;;;4.07;2.25;;;21.50;66.80;;;;;;20828806;28;20025;-19
2021/08/04 23:09:04;;;;;;;6.53;2.72;;;21.50;66.60;;;;;;20829251;28;20103;-19
2021/08/04 23:19:05;;;;;;;5.70;2.78;;;21.50;66.10;;;;;;20827505;28;20037;-19
2021/08/04 23:29:05;;;;;;;5.85;2.40;;;21.50;66.00;;;;;;20827418;28;20033;-19
2021/08/04 23:39:06;;;;;;;3.58;2.58;;;21.40;65.90;;;;;;20826632;28;20037;-19
2021/08/04 23:49:07;;;;;;;6.00;2.92;;;21.50;65.90;;;;;;20826126;28;20038;-19
2021/08/04 23:59:07;;;;;;;4.05;2.60;;;21.40;66.00;;;;;;20825002;28;20516;-19
